createdAt,value
2019-04-23T00:03:38.530Z,44.2
2019-04-23T00:08:41.370Z,44.6
2019-04-23T00:13:36.958Z,44.5
2019-04-23T00:18:36.608Z,44.7
2019-04-23T00:23:24.881Z,44.6
2019-04-23T00:28:26.263Z,44.7
2019-04-23T00:38:18.007Z,44.6
2019-04-23T00:43:14.802Z,44.6
2019-04-23T00:48:13.436Z,44.6
2019-04-23T00:53:10.759Z,44.8
2019-04-23T00:58:27.701Z,44.7
2019-04-23T01:07:57.661Z,44.7
2019-04-23T01:12:57.604Z,44.5
2019-04-23T01:17:52.916Z,44.5
2019-04-23T01:22:29.360Z,45
2019-04-23T01:27:54.409Z,45.2
2019-04-23T01:32:47.846Z,45.3
2019-04-23T01:47:44.985Z,49.6
2019-04-23T01:52:45.389Z,48.6
2019-04-23T01:57:37.331Z,49.9
2019-04-23T02:02:34.237Z,51.1
2019-04-23T02:07:35.389Z,51.5
2019-04-23T02:17:21.774Z,51.8
2019-04-23T02:22:24.368Z,52
2019-04-23T02:27:18.801Z,52.4
2019-04-23T02:32:18.630Z,51.8
2019-04-23T02:37:21.862Z,53.2
2019-04-23T02:42:28.013Z,53.4
2019-04-23T02:52:28.533Z,53.8
2019-04-23T03:02:14.087Z,54.4
2019-04-23T03:07:00.834Z,54.4
2019-04-23T03:11:56.505Z,54.8
2019-04-23T03:21:55.682Z,56.5
2019-04-23T03:37:08.433Z,60.1
2019-04-23T03:41:39.005Z,60
2019-04-23T03:46:36.179Z,60.1
2019-04-23T03:51:33.464Z,61
2019-04-23T04:01:28.908Z,61.2
2019-04-23T04:06:33.256Z,60
2019-04-23T04:16:15.371Z,59.5
2019-04-23T04:21:33.329Z,60
2019-04-23T04:31:50.285Z,61.4
2019-04-23T04:36:13.843Z,61.7
2019-04-23T04:41:05.317Z,61.5
2019-04-23T04:51:07.682Z,62.7
2019-04-23T04:56:04.763Z,62.6
2019-04-23T05:06:04.765Z,64.2
2019-04-23T05:10:51.097Z,64.1
2019-04-23T05:15:44.133Z,63.8
2019-04-23T05:20:42.764Z,64.6
2019-04-23T05:25:31.193Z,64.1
2019-04-23T05:35:46.395Z,64.7
2019-04-23T05:41:02.871Z,64.6
2019-04-23T05:45:21.409Z,64.6
2019-04-23T05:50:25.678Z,65
2019-04-23T06:00:07.264Z,65.8
2019-04-23T06:05:08.631Z,66.1
2019-04-23T06:10:04.576Z,65.7
2019-04-23T06:14:57.172Z,65.7
2019-04-23T06:19:56.615Z,66.5
2019-04-23T06:24:48.410Z,66
2019-04-23T06:29:49.340Z,66.4
2019-04-23T06:34:46.883Z,66.5
2019-04-23T06:39:47.875Z,65.5
2019-04-23T06:44:37.072Z,66.2
2019-04-23T06:49:36.850Z,66.5
2019-04-23T06:59:30.213Z,65.9
2019-04-23T07:09:17.073Z,65.7
2019-04-23T07:14:21.365Z,64.7
2019-04-23T07:19:23.257Z,65.2
2019-04-23T07:29:17.598Z,65.1
2019-04-23T07:34:05.026Z,65
2019-04-23T07:39:05.820Z,64.3
2019-04-23T07:44:12.179Z,65.3
2019-04-23T07:49:02.446Z,65.6
2019-04-23T07:54:00.012Z,64.3
2019-04-23T07:58:52.248Z,64.4
2019-04-23T08:08:48.514Z,63.7
2019-04-23T08:13:53.075Z,63.3
2019-04-23T08:18:49.001Z,62.6
2019-04-23T08:23:42.373Z,62.3
2019-04-23T08:33:31.227Z,62.2
2019-04-23T08:38:29.256Z,61.1
2019-04-23T08:58:18.702Z,59
2019-04-23T09:03:18.538Z,59.4
2019-04-23T09:08:12.817Z,59.5
2019-04-23T09:13:32.997Z,60.4
2019-04-23T09:18:09.105Z,61.2
2019-04-23T09:22:54.581Z,61.8
2019-04-23T09:27:59.177Z,63.3
2019-04-23T09:32:58.652Z,63.3
2019-04-23T09:37:51.859Z,62.6
2019-04-23T09:42:54.149Z,62.5
2019-04-23T09:47:50.273Z,63
2019-04-23T09:57:42.995Z,61.8
2019-04-23T10:02:26.609Z,60.7
2019-04-23T10:07:20.229Z,60.9
2019-04-23T10:12:05.125Z,60.7
2019-04-23T10:17:02.136Z,60.8
2019-04-23T10:21:59.765Z,60.7
2019-04-23T10:26:55.762Z,60.4
2019-04-23T10:31:53.563Z,59.6
2019-04-23T10:36:51.478Z,59.5
2019-04-23T10:41:48.680Z,58.2
2019-04-23T10:47:11.341Z,58.5
2019-04-23T10:52:12.525Z,57.3
2019-04-23T10:57:03.603Z,57
2019-04-23T11:02:23.416Z,56.1
2019-04-23T11:07:00.354Z,55.8
2019-04-23T11:11:58.789Z,56
2019-04-23T11:26:49.087Z,56.3
2019-04-23T11:31:52.000Z,55.9
2019-04-23T11:41:57.652Z,55.8
2019-04-23T11:51:45.722Z,56.1
2019-04-23T11:56:50.852Z,56.1
2019-04-23T12:01:41.752Z,56.8
2019-04-23T12:06:38.217Z,55.3
2019-04-23T12:16:27.692Z,54.9
2019-04-23T12:21:19.570Z,54.9
2019-04-23T12:26:19.055Z,55.5
2019-04-23T12:31:15.738Z,55.5
2019-04-23T12:36:14.265Z,55.6
2019-04-23T12:41:01.588Z,55.2
2019-04-23T12:45:54.141Z,56.2
2019-04-23T12:51:16.720Z,56
2019-04-23T12:55:50.037Z,56.2
2019-04-23T13:00:45.243Z,55.2
2019-04-23T13:05:48.343Z,55.5
2019-04-23T13:10:45.098Z,55.8
2019-04-23T13:15:39.688Z,56
2019-04-23T13:20:36.468Z,55.4
2019-04-23T13:25:47.075Z,54.7
2019-04-23T13:35:45.210Z,54.7
2019-04-23T13:50:36.721Z,55.9
2019-04-23T13:55:14.253Z,55.7
2019-04-23T14:00:24.530Z,56.2
2019-04-23T14:05:12.123Z,56.2
2019-04-23T14:10:16.780Z,56.3
2019-04-23T14:15:07.997Z,56.3
2019-04-23T14:20:06.969Z,56
2019-04-23T14:25:05.629Z,56.3
2019-04-23T14:30:12.445Z,55.7
2019-04-23T14:35:10.353Z,56.2
2019-04-23T14:39:52.065Z,56
2019-04-23T14:44:59.885Z,56.3
2019-04-23T14:49:58.576Z,57.4
2019-04-23T14:59:44.901Z,56.8
2019-04-23T15:04:37.699Z,56
2019-04-23T15:09:39.540Z,55.7
2019-04-23T15:19:35.694Z,55.3
2019-04-23T15:24:25.794Z,54.8
2019-04-23T15:29:06.600Z,55.2
2019-04-23T15:34:17.443Z,55.1
2019-04-23T15:39:20.829Z,55.4
2019-04-23T15:44:20.718Z,55.4
2019-04-23T15:54:12.314Z,55.3
2019-04-23T15:59:20.838Z,55.3
2019-04-23T16:03:38.139Z,55.8
2019-04-23T16:18:58.460Z,56.7
2019-04-23T16:24:00.595Z,56.8
2019-04-23T16:33:46.871Z,56.9
2019-04-23T16:38:41.961Z,57.1
2019-04-23T16:48:47.599Z,57.6
2019-04-23T16:53:28.244Z,57.5
2019-04-23T16:58:50.737Z,57.5
2019-04-23T17:03:42.686Z,57.9
2019-04-23T17:08:42.027Z,57.8
2019-04-23T17:18:24.291Z,57.8
2019-04-23T17:28:17.820Z,58.4
2019-04-23T17:33:18.470Z,58.6
2019-04-23T17:38:14.204Z,58.9
2019-04-23T17:43:05.713Z,59.4
2019-04-23T17:48:12.752Z,59.4
2019-04-23T17:53:02.585Z,59.5
2019-04-23T17:58:05.860Z,59.8
2019-04-23T18:13:04.139Z,60.9
2019-04-23T18:22:52.292Z,61.6
2019-04-23T18:27:45.394Z,61.8
2019-04-23T18:32:50.726Z,62
2019-04-23T18:37:34.083Z,62.2
2019-04-23T18:42:40.144Z,62.3
2019-04-23T18:47:39.989Z,62.4
2019-04-23T18:52:40.632Z,62.4
2019-04-23T18:57:27.128Z,62.6
2019-04-23T19:02:35.000Z,62.7
2019-04-23T19:07:31.479Z,62.8
2019-04-23T19:12:23.480Z,62.7
2019-04-23T19:22:18.700Z,62.6
2019-04-23T19:32:00.375Z,62.5
2019-04-23T19:47:01.542Z,62.6
2019-04-23T19:51:57.519Z,62.6
2019-04-23T20:01:54.863Z,62.8
2019-04-23T20:07:03.965Z,62.6
2019-04-23T20:11:50.056Z,62.6
2019-04-23T20:16:48.396Z,62.5
2019-04-23T20:21:44.083Z,62.9
2019-04-23T20:26:27.740Z,62.6
2019-04-23T20:32:39.813Z,62.2
2019-04-23T20:36:38.278Z,62.2
2019-04-23T20:41:42.148Z,61.9
2019-04-23T20:46:21.021Z,62
2019-04-23T20:51:22.177Z,61.9
2019-04-23T20:56:23.586Z,62
2019-04-23T21:06:25.799Z,61.5
2019-04-23T21:11:04.368Z,62
2019-04-23T21:16:04.705Z,61.6
2019-04-23T21:21:00.469Z,61.9
2019-04-23T21:25:56.875Z,61.8
2019-04-23T21:41:05.346Z,61
2019-04-23T21:50:48.799Z,61.3
2019-04-23T21:55:59.371Z,61.3
2019-04-23T22:00:51.744Z,61.1
2019-04-23T22:05:42.115Z,61.1
2019-04-23T22:10:42.131Z,61.4
2019-04-23T22:15:44.446Z,61.5
2019-04-23T22:20:31.042Z,62
2019-04-23T22:25:29.261Z,61.6
2019-04-23T22:35:37.589Z,62.1
2019-04-23T22:40:13.927Z,62
2019-04-23T22:50:10.665Z,62.2
2019-04-23T23:10:06.386Z,63.1
2019-04-23T23:15:00.772Z,63.4
2019-04-23T23:20:05.490Z,63.4
2019-04-23T23:25:04.311Z,63.7
2019-04-23T23:29:55.897Z,63.6
2019-04-23T23:35:00.599Z,63.8
2019-04-23T23:39:49.210Z,63.6
2019-04-23T23:44:55.476Z,63.5
2019-04-23T23:49:41.103Z,63.5
2019-04-23T23:54:33.079Z,63.7
2019-04-23T23:59:30.199Z,63.8
